François Lagadeuc

François Lagadeuc

Statistiques 2026

  • Courses courues : 319
  • Nb de victoires : 46
  • Nb de places : 87
  • Écart gagnant : 13
  • Réussite à la gagne : 14%
  • Réussite à la place : 27%
Musique : 5m 4a 0m 0a 0a Da Da Da 5a 2a 3a 2a 8a 1a 8a 1a 5m Da
DateRangCatégorieAlloc.Dist.HippodromeChevalRed. KmSpé.
16/03/21 1 Trot 33 000€ 2 250m Enghien Soisy Gad de Baffais 1'14"2 Monté lire

Principal animateur, a su se montrer le plus fort pour finir.

16/03/21 1 Trot 33 000€ 2 150m Enghien Soisy Ivensong 1'15"3 Attelé
14/03/21 2 Trot 10 000€ 2 700m Graignes Favela Somolli 1'15"9 Attelé
14/03/21 D Trot 13 000€ 2 700m Graignes History de Belfond Attelé
14/03/21 2 Trot 13 000€ 2 700m Graignes Hamya 1'18"4 Attelé
14/03/21 D Trot 13 000€ 2 700m Graignes Hoche Attelé
14/03/21 0 Trot 10 000€ 2 700m Graignes Ines du Beryl Attelé
14/03/21 7 Trot 10 000€ 2 700m Graignes Histoire du Perche 1'23"2 Attelé
14/03/21 5 Trot 13 000€ 2 700m Graignes Good Bye Angot 1'18"0 Monté
13/03/21 6 Trot 31 000€ 2 450m Caen Esperado 1'15"1 Attelé
13/03/21 4 Trot 27 000€ 2 450m Caen Daddy Cash 1'14"9 Monté
13/03/21 D Trot 16 000€ 2 450m Caen Hilton du Greny Monté
12/03/21 D Trot 30 000€ 2 850m Cordemais Datcha Attelé
12/03/21 1 Trot 19 000€ 2 850m Cordemais Gregor 1'16"1 Attelé
12/03/21 3 Trot 19 000€ 2 825m Cordemais Gloria de Centule 1'17"0 Monté
11/03/21 4 Trot 31 000€ 2 475m Caen Bloomer 1'13"5 Attelé
11/03/21 D Trot 23 000€ 2 450m Caen Hotika Blue Attelé
11/03/21 1 Trot 18 000€ 2 200m Caen Hikatika 1'15"8 Attelé
11/03/21 5 Trot 20 000€ 2 450m Caen Goal de la Mortrie 1'15"2 Monté
08/03/21 3 Trot 26 000€ 2 450m Caen Fregate Island 1'14"3 Attelé
08/03/21 9 Trot 26 000€ 2 450m Caen Fantaisie 1'14"1 Monté
08/03/21 6 Trot 20 000€ 2 200m Caen Gaston du Roc 1'13"8 Attelé
08/03/21 4 Trot 18 000€ 2 200m Caen Harfan des Granges 1'14"1 Attelé
08/03/21 5 Trot 23 000€ 2 450m Caen Gladys du Cedre 1'14"2 Monté
08/03/21 D Trot 16 000€ 2 450m Caen Ideal Mektoub Attelé
06/03/21 9 Trot 90 000€ 2 100m Vincennes Zlatan 1'12"4 Attelé lire

N'a joué aucun rôle utile.

06/03/21 9 Trot 44 000€ 2 700m Vincennes Gassman d'Essa 1'13"7 Attelé lire

Après avoir attendu, a progressé dans le tournant final en dedans, sans pouvoir soutenir son effort jusqu'au bout.

06/03/21 5 Trot 44 000€ 2 700m Vincennes Halma Vici 1'15"5 Attelé
05/03/21 8 Trot 16 000€ 2 850m Laval Hilton de Lavau 1'20"7 Monté
05/03/21 1 Trot 18 000€ 2 850m Laval Galante de Tillard 1'15"6 Attelé
05/03/21 1 Trot 32 000€ 2 850m Laval Enzo d'Essarts 1'14"6 Attelé lire

Progressivement rapproché au bout de la ligne opposée, a su se montrer nettement le plus fort dans la phase finale.

05/03/21 2 Trot 18 000€ 2 875m Laval Galehaut America 1'15"0 Attelé
04/03/21 3 Trot 60 000€ 2 175m Vincennes India de Banville 1'14"5 Monté
03/03/21 5 Trot 51 000€ 2 100m Vincennes Eire d'helios 1'11"1 Attelé lire

Longtemps au sein du peloton, a gagné du terrain au sommet de la montée, soutenant bien son effort jusqu'au bout.

02/03/21 2 Trot 30 000€ 2 800m Pontchateau Figaro Vici 1'15"3 Attelé
02/03/21 2 Trot 21 000€ 2 800m Pontchateau Du Scion 1'15"3 Monté
02/03/21 6 Trot 17 000€ 2 800m Pontchateau Hagine Montaval 1'17"2 Monté
01/03/21 1 Trot 16 000€ 2 825m Le Croise Laroche High Fashion 1'17"1 Attelé
01/03/21 1 Trot 23 000€ 2 700m Le Croise Laroche Elixir Wind 1'13"6 Attelé
01/03/21 8 Trot 18 000€ 2 700m Le Croise Laroche Fille d'Argent 1'16"2 Attelé
01/03/21 1 Trot 16 000€ 2 825m Le Croise Laroche Harry de Sassy 1'16"1 Attelé
28/02/21 3 Trot 17 000€ 2 700m Graignes Eliot du Louvet 1'16"1 Attelé
28/02/21 2 Trot 13 000€ 2 700m Graignes Hoche 1'16"9 Attelé
28/02/21 1 Trot 13 000€ 2 700m Graignes Horps Dairpet 1'16"0 Monté
28/02/21 2 Trot 11 000€ 2 700m Graignes Isa du Pressoir 1'18"5 Attelé
26/02/21 5 Trot 33 000€ 2 100m Vincennes Eldorado de Ver 1'12"1 Attelé lire

Principal animateur, a progressivement faibli pour finir.

26/02/21 8 Trot 33 000€ 2 700m Vincennes Hermione d'Argent 1'15"7 Monté
25/02/21 D Trot 29 000€ 2 850m Vincennes Give Me Quick Attelé
25/02/21 D Trot 51 000€ 2 100m Vincennes Ciel Boreal Attelé
24/02/21 0 Trot 19 000€ 2 825m Vire Elegant Hope Attelé